createdAt,value
2022-09-09T00:02:01.954Z,32.40
2022-09-09T00:04:32.531Z,33.20
2022-09-09T00:07:25.700Z,33.10
2022-09-09T00:10:26.275Z,32.90
2022-09-09T00:13:13.083Z,32.30
2022-09-09T00:16:08.857Z,32.20
2022-09-09T00:19:06.434Z,32.60
2022-09-09T00:21:48.677Z,32.70
2022-09-09T00:24:21.462Z,33.20
2022-09-09T00:26:55.356Z,33.50
2022-09-09T00:29:34.296Z,34.00
2022-09-09T00:32:19.824Z,34.10
2022-09-09T00:35:01.214Z,34.20
2022-09-09T00:37:29.847Z,34.40
2022-09-09T00:40:01.362Z,34.90
2022-09-09T00:42:56.033Z,35.10
2022-09-09T00:46:10.820Z,34.80
2022-09-09T00:48:57.935Z,34.90
2022-09-09T00:51:58.499Z,35.20
2022-09-09T00:54:49.391Z,35.00
2022-09-09T00:57:36.628Z,35.20
2022-09-09T01:00:21.743Z,34.80
2022-09-09T01:03:04.045Z,35.50
2022-09-09T01:05:33.914Z,35.60
2022-09-09T01:08:04.213Z,35.90
2022-09-09T01:10:33.932Z,35.40
2022-09-09T01:13:07.124Z,35.80
2022-09-09T01:15:35.625Z,36.00
2022-09-09T01:18:16.900Z,36.10
2022-09-09T01:20:50.639Z,36.40
2022-09-09T01:23:35.962Z,36.50
2022-09-09T01:26:27.028Z,36.70
2022-09-09T01:28:57.414Z,36.80
2022-09-09T01:31:29.766Z,37.20
2022-09-09T01:33:56.718Z,36.90
2022-09-09T01:36:44.779Z,37.10
2022-09-09T01:39:12.524Z,37.20
2022-09-09T01:41:40.099Z,37.10
2022-09-09T01:44:09.533Z,37.00
2022-09-09T01:46:36.943Z,36.90
2022-09-09T01:49:06.352Z,36.50
2022-09-09T01:51:33.717Z,36.10
2022-09-09T01:54:01.563Z,36.40
2022-09-09T01:57:06.808Z,35.80
2022-09-09T01:59:59.802Z,35.00
2022-09-09T02:02:30.460Z,34.90
2022-09-09T02:05:11.317Z,34.50
2022-09-09T02:07:43.750Z,33.90
2022-09-09T02:10:25.071Z,33.90
2022-09-09T02:13:12.950Z,34.30
2022-09-09T02:16:01.292Z,34.50
2022-09-09T02:18:36.420Z,34.50
2022-09-09T02:21:04.617Z,34.00
2022-09-09T02:23:34.971Z,33.70
2022-09-09T02:26:04.919Z,34.10
2022-09-09T02:28:34.302Z,34.30
2022-09-09T02:31:02.295Z,34.30
2022-09-09T02:33:35.697Z,34.70
2022-09-09T02:36:04.747Z,34.10
2022-09-09T02:38:37.534Z,34.20
2022-09-09T02:41:05.185Z,34.20
2022-09-09T02:43:34.117Z,34.30
2022-09-09T02:46:30.225Z,35.00
2022-09-09T02:49:05.195Z,35.00
2022-09-09T02:51:45.598Z,35.20
2022-09-09T02:54:24.165Z,35.60
2022-09-09T02:56:57.512Z,35.30
2022-09-09T02:59:27.426Z,35.80
2022-09-09T03:01:54.746Z,35.80
2022-09-09T03:04:22.327Z,35.90
2022-09-09T03:06:49.329Z,35.60
2022-09-09T03:09:16.491Z,35.70
2022-09-09T03:11:43.448Z,36.20
2022-09-09T03:14:12.410Z,36.40
2022-09-09T03:16:40.671Z,36.50
2022-09-09T03:19:08.110Z,37.00
2022-09-09T03:21:35.009Z,37.10
2022-09-09T03:24:04.477Z,36.90
2022-09-09T03:26:31.721Z,37.00
2022-09-09T03:28:58.667Z,37.30
2022-09-09T03:31:26.572Z,37.40
2022-09-09T03:33:53.818Z,37.20
2022-09-09T03:36:20.903Z,36.90
2022-09-09T03:38:47.786Z,37.00
2022-09-09T03:41:14.773Z,37.30
2022-09-09T03:43:42.961Z,37.50
2022-09-09T03:46:09.920Z,37.70
2022-09-09T03:48:37.108Z,37.60
2022-09-09T03:51:04.268Z,37.70
2022-09-09T03:53:31.474Z,37.60
2022-09-09T03:56:01.067Z,37.60
2022-09-09T03:58:28.628Z,37.80
2022-09-09T04:01:01.216Z,38.10
2022-09-09T04:03:28.768Z,37.90
2022-09-09T04:05:57.352Z,37.60
2022-09-09T04:08:26.728Z,37.10
2022-09-09T04:10:54.755Z,37.20
2022-09-09T04:13:21.781Z,37.10
2022-09-09T04:15:56.362Z,37.30
2022-09-09T04:18:24.088Z,37.60
2022-09-09T04:20:55.172Z,37.60
2022-09-09T04:23:22.073Z,37.60
2022-09-09T04:25:51.175Z,37.50
2022-09-09T04:28:20.406Z,37.00
2022-09-09T04:30:47.749Z,36.70
2022-09-09T04:33:16.138Z,37.00
2022-09-09T04:35:51.038Z,37.20
2022-09-09T04:38:19.294Z,36.40
2022-09-09T04:40:50.331Z,36.40
2022-09-09T04:43:18.280Z,36.50
2022-09-09T04:45:49.008Z,36.80
2022-09-09T04:48:16.533Z,37.20
2022-09-09T04:50:43.724Z,37.70
2022-09-09T04:53:11.295Z,37.60
2022-09-09T04:55:38.730Z,37.80
2022-09-09T04:58:07.807Z,37.50
2022-09-09T05:00:37.154Z,37.20
2022-09-09T05:03:09.956Z,37.40
2022-09-09T05:05:37.012Z,37.50
2022-09-09T05:08:09.625Z,37.20
2022-09-09T05:10:39.301Z,37.10
2022-09-09T05:13:07.935Z,36.80
2022-09-09T05:15:35.166Z,37.10
2022-09-09T05:18:02.410Z,36.90
2022-09-09T05:20:30.462Z,36.90
2022-09-09T05:22:58.039Z,36.70
2022-09-09T05:25:28.182Z,36.60
2022-09-09T05:27:55.556Z,36.90
2022-09-09T05:30:24.315Z,37.30
2022-09-09T05:32:51.366Z,37.80
2022-09-09T05:35:20.232Z,37.70
2022-09-09T05:37:47.236Z,37.70
2022-09-09T05:40:14.575Z,38.00
2022-09-09T05:42:43.009Z,38.00
2022-09-09T05:45:10.666Z,38.20
2022-09-09T05:47:38.544Z,38.60
2022-09-09T05:50:06.349Z,38.40
2022-09-09T05:52:33.840Z,38.30
2022-09-09T05:55:00.938Z,38.30
2022-09-09T05:57:27.896Z,38.30
2022-09-09T05:59:55.210Z,38.30
2022-09-09T06:02:22.143Z,38.30
2022-09-09T06:04:49.266Z,38.30
2022-09-09T06:07:16.189Z,37.90
2022-09-09T06:09:43.095Z,38.20
2022-09-09T06:12:10.391Z,38.60
2022-09-09T06:14:38.008Z,38.70
2022-09-09T06:17:05.042Z,38.50
2022-09-09T06:19:32.165Z,38.40
2022-09-09T06:21:59.688Z,38.40
2022-09-09T06:24:29.091Z,38.30
2022-09-09T06:26:56.085Z,37.90
2022-09-09T06:29:23.008Z,38.30
2022-09-09T06:31:50.102Z,38.10
2022-09-09T06:34:17.094Z,38.30
2022-09-09T06:36:44.014Z,38.60
2022-09-09T06:39:14.693Z,38.70
2022-09-09T06:41:43.869Z,38.80
2022-09-09T06:44:12.952Z,38.70
2022-09-09T06:46:40.881Z,38.30
2022-09-09T06:49:09.759Z,37.50
2022-09-09T06:51:43.823Z,37.60
2022-09-09T06:54:12.340Z,37.80
2022-09-09T06:56:43.075Z,37.90
2022-09-09T06:59:11.119Z,37.80
2022-09-09T07:01:41.979Z,38.00
2022-09-09T07:04:12.449Z,37.50
2022-09-09T07:06:44.649Z,37.40
2022-09-09T07:09:15.124Z,37.40
2022-09-09T07:11:44.497Z,37.80
2022-09-09T07:14:15.633Z,37.40
2022-09-09T07:16:42.992Z,37.50
2022-09-09T07:19:10.395Z,37.60
2022-09-09T07:21:37.380Z,37.00
2022-09-09T07:24:08.324Z,37.00
2022-09-09T07:26:35.566Z,37.70
2022-09-09T07:29:02.838Z,38.20
2022-09-09T07:31:36.456Z,38.50
2022-09-09T07:34:04.377Z,38.90
2022-09-09T07:36:33.905Z,39.30
2022-09-09T07:39:06.950Z,39.40
2022-09-09T07:41:56.676Z,38.90
2022-09-09T07:44:28.479Z,38.60
2022-09-09T07:46:55.509Z,38.30
2022-09-09T07:49:28.557Z,38.40
2022-09-09T07:51:57.972Z,38.70
2022-09-09T07:54:25.291Z,38.90
2022-09-09T07:56:53.311Z,39.10
2022-09-09T07:59:20.312Z,39.20
2022-09-09T08:01:50.396Z,38.90
2022-09-09T08:04:19.900Z,39.00
2022-09-09T08:06:59.682Z,39.30
2022-09-09T08:09:30.072Z,39.40
2022-09-09T08:11:59.297Z,39.80
2022-09-09T08:14:26.851Z,40.00
2022-09-09T08:16:57.308Z,39.90
2022-09-09T08:19:24.700Z,39.80
2022-09-09T08:21:51.910Z,40.20
2022-09-09T08:24:20.704Z,40.50
2022-09-09T08:26:52.683Z,40.50
2022-09-09T08:29:19.739Z,40.60
2022-09-09T08:31:58.479Z,40.50
2022-09-09T08:34:28.195Z,40.70
2022-09-09T08:36:56.302Z,40.20
2022-09-09T08:39:24.350Z,40.00
2022-09-09T08:42:01.787Z,40.40
2022-09-09T08:44:37.490Z,40.30
2022-09-09T08:47:33.722Z,40.00
2022-09-09T08:50:26.159Z,39.70
2022-09-09T08:53:04.091Z,40.10
2022-09-09T08:55:41.396Z,40.30
2022-09-09T08:58:14.451Z,40.40
2022-09-09T09:00:44.649Z,40.50
2022-09-09T09:03:40.323Z,40.50
2022-09-09T09:06:27.348Z,40.50
2022-09-09T09:08:57.338Z,41.00
2022-09-09T09:11:24.830Z,40.90
2022-09-09T09:14:24.525Z,41.60
2022-09-09T09:17:00.354Z,41.40
2022-09-09T09:19:29.648Z,41.20
2022-09-09T09:22:23.351Z,42.00
2022-09-09T09:24:57.701Z,41.60
2022-09-09T09:27:36.572Z,41.70
2022-09-09T09:30:28.678Z,41.10
2022-09-09T09:33:25.926Z,40.40
2022-09-09T09:35:52.887Z,40.80
2022-09-09T09:41:10.654Z,40.70
2022-09-09T09:43:42.025Z,40.70
2022-09-09T09:46:24.824Z,40.10
2022-09-09T09:49:06.686Z,40.20
2022-09-09T09:51:35.047Z,40.80
2022-09-09T09:54:14.512Z,40.40
2022-09-09T09:56:42.819Z,40.20
2022-09-09T09:59:39.369Z,40.60
2022-09-09T10:02:21.105Z,40.90
2022-09-09T10:04:48.711Z,39.60
2022-09-09T10:07:21.198Z,39.70
2022-09-09T10:09:56.952Z,40.10
2022-09-09T10:12:32.713Z,40.30
2022-09-09T10:15:28.428Z,40.40
2022-09-09T10:18:24.773Z,40.80
2022-09-09T10:21:12.779Z,40.90
2022-09-09T10:23:58.597Z,40.80
2022-09-09T10:26:48.234Z,40.70
2022-09-09T10:29:54.524Z,40.90
2022-09-09T10:32:52.327Z,41.20
2022-09-09T10:35:40.892Z,40.50
2022-09-09T10:38:29.805Z,40.90
2022-09-09T10:40:57.645Z,40.70
2022-09-09T10:44:00.585Z,41.40
2022-09-09T10:46:30.648Z,42.40
2022-09-09T10:49:00.510Z,42.80
2022-09-09T10:51:27.425Z,43.00
2022-09-09T10:54:21.005Z,43.70
2022-09-09T10:56:57.789Z,44.30
2022-09-09T10:59:38.217Z,44.60
2022-09-09T11:02:10.878Z,44.50
2022-09-09T11:04:46.227Z,44.20
2022-09-09T11:07:19.962Z,44.40
2022-09-09T11:09:53.989Z,43.70
2022-09-09T11:12:21.486Z,43.90
2022-09-09T11:15:02.835Z,43.90
2022-09-09T11:17:47.935Z,44.50
2022-09-09T11:20:16.354Z,45.40
2022-09-09T11:22:52.167Z,45.90
2022-09-09T11:25:27.772Z,45.90
2022-09-09T11:28:02.052Z,45.30
2022-09-09T11:30:58.702Z,45.20
2022-09-09T11:33:34.569Z,45.50
2022-09-09T11:36:13.446Z,45.50
2022-09-09T11:38:47.343Z,45.50
2022-09-09T11:41:20.982Z,45.40
2022-09-09T11:43:54.117Z,45.00
2022-09-09T11:46:35.696Z,44.60
2022-09-09T11:49:06.459Z,44.10
2022-09-09T11:51:39.826Z,44.40
2022-09-09T11:54:31.084Z,44.40
2022-09-09T11:56:59.093Z,44.90
2022-09-09T11:59:31.567Z,44.80
2022-09-09T12:02:15.993Z,45.10
2022-09-09T12:04:57.403Z,45.30
2022-09-09T12:07:54.804Z,45.40
2022-09-09T12:10:30.204Z,46.00
2022-09-09T12:13:08.555Z,45.70
2022-09-09T12:15:35.825Z,45.80
2022-09-09T12:18:03.869Z,45.40
2022-09-09T12:20:32.425Z,44.80
2022-09-09T12:23:17.888Z,45.30
2022-09-09T12:26:19.480Z,45.80
2022-09-09T12:29:13.699Z,45.60
2022-09-09T12:32:15.864Z,45.90
2022-09-09T12:34:50.600Z,45.40
2022-09-09T12:37:33.319Z,44.70
2022-09-09T12:40:24.751Z,44.50
2022-09-09T12:42:51.911Z,45.00
2022-09-09T12:45:28.198Z,44.80
2022-09-09T12:47:59.652Z,45.00
2022-09-09T12:50:30.160Z,45.10
2022-09-09T12:53:00.653Z,44.60
2022-09-09T12:55:32.010Z,43.60
2022-09-09T12:58:00.737Z,43.30
2022-09-09T13:00:29.176Z,42.80
2022-09-09T13:02:58.269Z,42.90
2022-09-09T13:05:35.431Z,42.90
2022-09-09T13:08:04.507Z,42.80
2022-09-09T13:10:52.849Z,42.60
2022-09-09T13:13:35.391Z,42.50
2022-09-09T13:16:05.702Z,42.40
2022-09-09T13:18:39.183Z,42.50
2022-09-09T13:21:06.749Z,42.60
2022-09-09T13:23:36.819Z,42.10
2022-09-09T13:26:07.302Z,42.90
2022-09-09T13:28:34.975Z,43.30
2022-09-09T13:31:20.190Z,44.10
2022-09-09T13:33:47.142Z,44.30
2022-09-09T13:36:17.971Z,44.40
2022-09-09T13:38:58.326Z,43.90
2022-09-09T13:41:32.586Z,44.10
2022-09-09T13:44:01.121Z,43.20
2022-09-09T13:46:41.739Z,43.70
2022-09-09T13:49:11.507Z,43.80
2022-09-09T13:51:53.350Z,44.10
2022-09-09T13:54:21.945Z,44.40
2022-09-09T13:56:50.805Z,44.70
2022-09-09T13:59:23.138Z,44.50
2022-09-09T14:01:53.634Z,44.70
2022-09-09T14:04:25.514Z,44.60
2022-09-09T14:06:52.561Z,45.00
2022-09-09T14:09:19.831Z,45.70
2022-09-09T14:11:47.556Z,45.90
2022-09-09T14:14:14.843Z,46.10
2022-09-09T14:16:46.853Z,46.40
2022-09-09T14:19:13.952Z,46.60
2022-09-09T14:21:40.907Z,46.70
2022-09-09T14:24:08.128Z,47.20
2022-09-09T14:26:35.156Z,47.60
2022-09-09T14:29:02.950Z,47.40
2022-09-09T14:31:30.477Z,47.60
2022-09-09T14:33:57.508Z,47.20
2022-09-09T14:36:25.473Z,46.80
2022-09-09T14:38:54.482Z,46.70
2022-09-09T14:41:23.681Z,46.40
2022-09-09T14:46:48.828Z,45.30
2022-09-09T14:49:16.562Z,44.90
2022-09-09T14:51:43.657Z,44.80
2022-09-09T14:54:11.968Z,45.10
2022-09-09T14:56:39.154Z,44.90
2022-09-09T14:59:06.270Z,44.70
2022-09-09T15:01:33.349Z,45.10
2022-09-09T15:04:02.449Z,45.60
2022-09-09T15:06:31.917Z,45.30
2022-09-09T15:08:58.988Z,45.20
2022-09-09T15:11:29.001Z,45.10
2022-09-09T15:13:56.030Z,45.60
2022-09-09T15:16:25.361Z,45.70
2022-09-09T15:18:55.538Z,45.10
2022-09-09T15:21:25.300Z,44.30
2022-09-09T15:23:52.707Z,43.20
2022-09-09T15:26:20.793Z,43.00
2022-09-09T15:28:48.963Z,43.00
2022-09-09T15:31:19.929Z,42.70
2022-09-09T15:34:03.999Z,42.20
2022-09-09T15:36:33.879Z,42.00
2022-09-09T15:39:02.372Z,41.50
2022-09-09T15:41:30.106Z,41.60
2022-09-09T15:43:58.452Z,41.10
2022-09-09T15:46:30.120Z,40.30
2022-09-09T15:49:12.289Z,40.40
2022-09-09T15:51:43.637Z,40.60
2022-09-09T15:54:19.309Z,40.60
2022-09-09T15:56:50.613Z,40.80
2022-09-09T15:59:17.565Z,40.30
2022-09-09T16:01:45.128Z,40.30
2022-09-09T16:04:12.804Z,40.90
2022-09-09T16:06:40.283Z,41.30
2022-09-09T16:09:08.571Z,41.20
2022-09-09T16:11:41.545Z,41.30
2022-09-09T16:14:08.737Z,41.20
2022-09-09T16:16:36.678Z,41.20
2022-09-09T16:19:08.727Z,41.10
2022-09-09T16:21:38.798Z,41.30
2022-09-09T16:24:07.430Z,41.70
2022-09-09T16:26:36.993Z,41.80
2022-09-09T16:29:05.330Z,41.80
2022-09-09T16:31:35.604Z,41.50
2022-09-09T16:34:04.544Z,41.70
2022-09-09T16:36:37.272Z,41.80
2022-09-09T16:39:07.268Z,41.40
2022-09-09T16:41:34.667Z,40.80
2022-09-09T16:44:05.902Z,40.80
2022-09-09T16:46:36.491Z,40.50
2022-09-09T16:49:06.202Z,40.20
2022-09-09T16:51:39.092Z,40.60
2022-09-09T16:54:08.486Z,40.70
2022-09-09T16:56:38.121Z,39.90
2022-09-09T16:59:11.838Z,40.00
2022-09-09T17:01:41.958Z,40.00
2022-09-09T17:04:11.927Z,39.80
2022-09-09T17:06:39.426Z,39.90
2022-09-09T17:09:11.987Z,39.70
2022-09-09T17:11:41.653Z,40.00
2022-09-09T17:14:12.139Z,40.10
2022-09-09T17:16:40.702Z,40.10
2022-09-09T17:19:09.955Z,40.10
2022-09-09T17:21:42.750Z,40.10
2022-09-09T17:24:22.859Z,40.00
2022-09-09T17:26:49.812Z,40.00
2022-09-09T17:29:17.961Z,40.20
2022-09-09T17:31:45.138Z,40.50
2022-09-09T17:34:12.289Z,40.80
2022-09-09T17:36:39.714Z,40.90
2022-09-09T17:39:07.759Z,41.00
2022-09-09T17:41:38.060Z,41.10
2022-09-09T17:46:41.773Z,41.10
2022-09-09T17:49:14.120Z,41.10
2022-09-09T17:51:42.700Z,40.90
2022-09-09T17:54:13.334Z,40.90
2022-09-09T17:56:42.545Z,40.80
2022-09-09T17:59:13.249Z,40.70
2022-09-09T18:01:44.900Z,40.70
2022-09-09T18:04:17.069Z,40.80
2022-09-09T18:06:46.788Z,40.90
2022-09-09T18:09:17.032Z,40.80
2022-09-09T18:11:49.426Z,40.80
2022-09-09T18:14:22.809Z,40.80
2022-09-09T18:16:50.902Z,40.70
2022-09-09T18:19:21.481Z,40.60
2022-09-09T18:21:49.752Z,40.60
2022-09-09T18:24:19.095Z,40.60
2022-09-09T18:26:46.620Z,40.50
2022-09-09T18:29:16.103Z,40.40
2022-09-09T18:31:43.133Z,40.10
2022-09-09T18:34:12.407Z,40.10
2022-09-09T18:36:44.530Z,39.90
2022-09-09T18:39:13.734Z,40.00
2022-09-09T18:41:46.908Z,39.70
2022-09-09T18:44:16.710Z,39.60
2022-09-09T18:46:44.918Z,39.70
2022-09-09T18:49:12.822Z,39.90
2022-09-09T18:51:41.589Z,39.90
2022-09-09T18:54:23.711Z,39.70
2022-09-09T18:56:51.206Z,39.60
2022-09-09T18:59:20.836Z,39.70
2022-09-09T19:01:50.473Z,39.80
2022-09-09T19:04:18.952Z,39.30
2022-09-09T19:06:49.036Z,39.20
2022-09-09T19:09:18.789Z,39.00
2022-09-09T19:11:46.898Z,38.80
2022-09-09T19:14:17.310Z,38.90
2022-09-09T19:16:45.433Z,38.80
2022-09-09T19:19:17.565Z,38.90
2022-09-09T19:21:45.128Z,39.30
2022-09-09T19:24:16.619Z,39.50
2022-09-09T19:26:47.121Z,39.50
2022-09-09T19:29:17.287Z,39.50
2022-09-09T19:32:09.357Z,39.70
2022-09-09T19:34:32.917Z,39.80
2022-09-09T19:37:00.625Z,39.90
2022-09-09T19:39:27.772Z,39.40
2022-09-09T19:41:55.012Z,38.20
2022-09-09T19:44:22.719Z,38.00
2022-09-09T19:46:50.148Z,37.50
2022-09-09T19:49:17.769Z,38.00
2022-09-09T19:51:44.733Z,37.30
2022-09-09T19:54:16.669Z,37.20
2022-09-09T19:56:44.332Z,37.90
2022-09-09T19:59:13.078Z,38.10
2022-09-09T20:01:44.936Z,38.70
2022-09-09T20:04:14.673Z,38.80
2022-09-09T20:06:44.228Z,38.30
2022-09-09T20:09:14.934Z,37.70
2022-09-09T20:11:43.316Z,37.80
2022-09-09T20:14:11.852Z,38.40
2022-09-09T20:16:38.977Z,38.50
2022-09-09T20:19:11.354Z,38.50
2022-09-09T20:21:48.657Z,38.40
2022-09-09T20:24:18.948Z,38.30
2022-09-09T20:26:48.239Z,38.50
2022-09-09T20:29:18.664Z,38.10
2022-09-09T20:31:45.840Z,38.00
2022-09-09T20:34:19.094Z,37.90
2022-09-09T20:36:47.049Z,37.50
2022-09-09T20:39:16.167Z,36.90
2022-09-09T20:41:46.135Z,36.50
2022-09-09T20:44:15.675Z,36.30
2022-09-09T20:46:48.307Z,36.60
2022-09-09T20:49:18.460Z,37.00
2022-09-09T20:51:46.577Z,37.40
2022-09-09T20:54:26.514Z,37.00
2022-09-09T20:56:55.469Z,36.60
2022-09-09T20:59:27.867Z,35.70
2022-09-09T21:01:57.001Z,35.80
2022-09-09T21:04:25.230Z,36.40
2022-09-09T21:06:52.580Z,37.00
2022-09-09T21:09:22.590Z,36.50
2022-09-09T21:11:49.937Z,36.00
2022-09-09T21:14:17.927Z,36.30
2022-09-09T21:16:45.975Z,35.80
2022-09-09T21:19:13.073Z,36.40
2022-09-09T21:21:40.278Z,36.10
2022-09-09T21:24:07.384Z,36.40
2022-09-09T21:26:36.346Z,37.20
2022-09-09T21:29:03.330Z,37.50
2022-09-09T21:31:31.552Z,37.10
2022-09-09T21:33:58.664Z,36.80
2022-09-09T21:36:28.603Z,36.40
2022-09-09T21:38:56.885Z,36.10
2022-09-09T21:41:23.855Z,35.60
2022-09-09T21:43:54.329Z,35.60
2022-09-09T21:46:23.343Z,35.10
2022-09-09T21:48:51.027Z,35.50
2022-09-09T21:51:19.154Z,35.50
2022-09-09T21:53:46.448Z,35.40
2022-09-09T21:56:15.667Z,35.30
2022-09-09T21:58:43.026Z,35.80
2022-09-09T22:01:17.043Z,36.90
2022-09-09T22:03:45.397Z,36.60
2022-09-09T22:06:15.234Z,37.20
2022-09-09T22:08:42.880Z,37.40
2022-09-09T22:11:22.686Z,36.80
2022-09-09T22:13:51.250Z,36.80
2022-09-09T22:16:21.134Z,37.10
2022-09-09T22:18:57.196Z,37.30
2022-09-09T22:21:25.262Z,37.70
2022-09-09T22:23:57.866Z,38.10
2022-09-09T22:26:26.356Z,37.70
2022-09-09T22:28:54.074Z,37.90
2022-09-09T22:31:23.020Z,37.60
2022-09-09T22:33:51.833Z,36.90
2022-09-09T22:36:20.457Z,37.50
2022-09-09T22:38:49.129Z,37.60
2022-09-09T22:41:17.203Z,37.80
2022-09-09T22:43:44.850Z,38.10
2022-09-09T22:46:12.615Z,38.30
2022-09-09T22:48:40.157Z,38.20
2022-09-09T22:51:10.925Z,38.20
2022-09-09T22:53:39.205Z,38.60
2022-09-09T22:56:07.888Z,38.60
2022-09-09T22:58:36.944Z,38.50
2022-09-09T23:01:14.019Z,38.50
2022-09-09T23:03:42.396Z,38.50
2022-09-09T23:06:12.068Z,38.50
2022-09-09T23:08:39.210Z,38.30
2022-09-09T23:11:10.760Z,38.10
2022-09-09T23:13:42.221Z,38.20
2022-09-09T23:16:11.066Z,38.00
2022-09-09T23:18:40.443Z,38.30
2022-09-09T23:21:08.911Z,38.40
2022-09-09T23:23:35.822Z,38.30
2022-09-09T23:26:04.246Z,38.30
2022-09-09T23:28:36.326Z,38.10
2022-09-09T23:31:13.081Z,37.60
2022-09-09T23:33:41.729Z,37.00
2022-09-09T23:36:12.772Z,37.00
2022-09-09T23:38:40.455Z,37.20
2022-09-09T23:41:10.388Z,37.10
2022-09-09T23:43:39.674Z,37.60
2022-09-09T23:46:13.710Z,37.30
2022-09-09T23:48:41.121Z,37.50
2022-09-09T23:51:17.676Z,37.80
2022-09-09T23:53:51.360Z,37.80
2022-09-09T23:56:22.673Z,37.80
2022-09-09T23:58:50.695Z,37.60
